Forside
METAR-TAF:

METAR-TAF

Lufthavne :

Pella Municipal Airport

Pella, Iowa, USA

Breddekreds: 41-24N, længdekreds: 092-56W, højde: 270 m

Aktuelle vejr

Denne rapport blev lavet for 12 minutter siden, kl. 23:55 UTC
Vind 6 kt fra nordvest
Temperatur 17°C
Fugtighed 63%
Tryk 1014 hPa
Sigt: 16.1 km
Spredte skyer i en højde af 5000 ft

METAR: KPEA 192355Z AUTO 31006KT 10SM SCT050 17/10 A2994 RMK AO2 T01740096 10202 20148

Tid: 19:07 (00:07 UTC)


TAF: fraværende

Vejrobservationer og prognoser fra mere end 4000 lufthavne (METAR og TAF).

De gule og røde prikker repræsenterer de meteorologiske stationer.

Flyt musen over at se navnet på stationen.

Så klik over at se vejr observationer og prognoser.

At skifte det kort: Klik på de grønne knapper med et sort kors for at zoome ind; på den grønne knap med en bindestreg for at zoome ud; eller på de grønne pile for tilstødende kort.


METAR-TAF: